Racecast

Deuce Meszaros

Umoja (CA) · 11-12 · Compare head to head

Athlete rating 97.1 2012 TF season
Best race 97.2 TF
Races 61
Seasons 5 2011 — 2015

RankedNation #10602·CA #529·Team #10 ?

Rating scale ?
Speed rating — all races

Track & Field

TF speed rating

2015 TF

Umoja (CA) · Grade 11-12

Date Meet Event Result Place Rating Difficulty PR/SR Flags
2015-05-16 3M Track Club Track and Field Invitation 100m 16.73 53rd · 2nd on team -0.028
2015-05-16 3M Track Club Track and Field Invitation 400m 1:35.05 29th · 5th on team -0.028
2015-05-02 Running Rebels/Top Pacers Invitational 400m 1:33.36 29th · 7th on team -0.038 SR
2015-05-02 Running Rebels/Top Pacers Invitational 100m 16.53 41st · 6th on team -0.038 SR
2015-04-18 Shor/Sheppard Invitational 200m 35.55 21st · 5th on team -0.022 ★PR SR
2015-04-18 Shor/Sheppard Invitational 400m 1:34.49 15th · 9th on team -0.022
2015-04-18 Shor/Sheppard Invitational 100m 16.84 17th · 5th on team -0.022
2015-04-04 Sacramento Speed Factory 200m 37.35 32nd · 7th on team -0.033 SR
2015-04-04 Sacramento Speed Factory 400m 1:33.88 49th · 6th on team -0.033 SR
2015-04-04 Sacramento Speed Factory 100m 16.81 37th · 4th on team -0.033
2015-03-21 RPM Legacy shot 6.30m -0.020
2015-03-21 RPM Legacy 400m 1:41.95 74th · 7th on team -0.020 SR
2015-03-21 RPM Legacy 100m 16.77 65th · 6th on team -0.020 SR

2014 TF 74.0

Umoja (CA) · Grade 9-10

Date Meet Event Result Place Rating Difficulty PR/SR Flags
2014-05-18 3M Invitational 800m 3:24.2 20th · 4th on team 74.4 -0.028 SR RSR
2014-05-18 3M Invitational 400m 1:26.9 24th · 4th on team -0.028 SR
2014-04-05 Sacramento Speed Showcase 400m 1:27.47 48th · 3rd on team -0.033 SR
2014-04-05 Sacramento Speed Showcase 200m 35.73 31st · 4th on team -0.033 PR SR
2014-04-05 Sacramento Speed Showcase 800m 3:24.68 21st · 2nd on team 73.7 -0.033 SR
2014-03-22 RPM 400m 1:32.24 45th · 4th on team -0.012 SR
2014-03-22 RPM 800m 3:28.8 10th · 4th on team 73.8 -0.012 SR RSR
2014-03-22 RPM 100m 15.44 18th · 1st on team -0.012 ★PR SR

2013 TF 77.6

Umoja (CA) · Grade 9-10

Date Meet Event Result Place Rating Difficulty PR/SR Flags
2013-06-08 Pacific Association Youth Championship (PAC) - 2-day meet 400m 2:14.44 25th · 6th on team -0.024
2013-06-08 Pacific Association Youth Championship (PAC) - 2-day meet 800m 3:19.05 23rd · 3rd on team 76.4 -0.024
2013-05-25 Central Valley Roadrunners (2-day meet) 400m 1:22.98 14th · 3rd on team -0.026
2013-05-25 Central Valley Roadrunners (2-day meet) 800m 3:13.04 9th · 2nd on team 78.4 -0.026
2013-05-18 3M Track Club 400m 1:24.06 25th · 4th on team -0.028
2013-05-18 3M Track Club 800m 3:12.5 15th · 2nd on team 78.7 -0.028
2013-05-18 3M Track Club 200m 36.11 38th · 4th on team -0.028
2013-05-04 Hercules / Running Rebels (2-day) 400m 1:21.25 31st · 7th on team -0.038 ★PR SR
2013-05-04 Hercules / Running Rebels (2-day) 800m 3:16.64 21st · 4th on team 76.2 -0.038
2013-05-04 Hercules / Running Rebels (2-day) 200m 35.97 42nd · 3rd on team -0.038 PR SR
2013-04-27 Revolution Express Track Club 400m 1:24.39 28th · 5th on team -0.024 SR
2013-04-27 Revolution Express Track Club 200m 36.65 27th · 3rd on team -0.024 PR SR
2013-04-27 Revolution Express Track Club 800m 3:11.11 15th · 4th on team 79.6 -0.024 SR RSR
2013-04-20 Shor / Sheppard Classic 800m 3:19.25 19th · 3rd on team 76.4 -0.022 SR RSR

2012 TF 94.5

Umoja (CA) · Grade 7-8

Date Meet Event Result Place Rating Difficulty PR/SR Flags
2012-06-30 Sub-Bantam Championships (Pacific Association) javelin 38-07 -0.033
2012-06-30 Sub-Bantam Championships (Pacific Association) 800m 3:15.54 5th · 1st on team 92.4 -0.033
2012-06-30 Sub-Bantam Championships (Pacific Association) 400m 1:25.52 3rd · 1st on team -0.033
2012-06-30 Sub-Bantam Championships (Pacific Association) 100m 17.62 14th · 2nd on team -0.033 PR SR
2012-06-30 Sub-Bantam Championships (Pacific Association) 200m 37.46 13th · 1st on team -0.033 PR SR
2012-06-09 Pacific Association Youth Championships 800m 3:12.48 4th · 1st on team 93.9 -0.034
2012-06-09 Pacific Association Youth Championships 400m 1:25.31 5th · 1st on team -0.034
2012-05-26 Central Valley Roadrunners Track Club 200m 38.2 28th · 1st on team -0.026 PR SR
2012-05-26 Central Valley Roadrunners Track Club 800m 3:08.35 3rd · 1st on team 96.5 -0.026
2012-05-19 3M Track Meet 400m 1:26.44 9th · 1st on team -0.031
2012-05-19 3M Track Meet 800m 3:05.96 4th · 1st on team 97.2 -0.031 ★R RSR
2012-05-05 Hercules Running Rebels / Top Pacers Invitational 800m 3:05.11 4th · 1st on team 97.1 -0.038 ★PR R SR RSR
2012-05-05 Hercules Running Rebels / Top Pacers Invitational 400m 1:23.72 7th · 1st on team -0.038 PR SR
2012-04-21 Shor / Sheppard Classic 800m 3:22.63 3rd · 1st on team 90.0 -0.022 PR R SR RSR
2012-04-21 Shor / Sheppard Classic 400m 1:28.23 8th · 1st on team -0.022 SR
2012-04-07 Phenom Elite 400m 1:29.61 11th · 1st on team -0.022 SR
2012-03-24 Revolution Express Track Club 100m 17.86 9th · 1st on team -0.024 PR SR
2012-03-24 Revolution Express Track Club 200m 39.35 9th · 1st on team -0.024 PR SR
2012-03-24 Revolution Express Track Club 400m 1:31.14 8th · 1st on team -0.024 SR

2011 TF

Umoja (CA) · Grade 7-8

Date Meet Event Result Place Rating Difficulty PR/SR Flags
2011-07-02 PA USATF Sub-Bantam Championships 400m 1:31.79 14th · 2nd on team -0.031
2011-06-11 PA USATF Youth Championships (PAC) 400m 1:28.18 19th · 2nd on team -0.028 PR SR
2011-06-11 PA USATF Youth Championships (PAC) 200m 39.85 33rd · 3rd on team -0.028 PR SR
2011-05-21 Hercules Running Rebels & Top Pacers Track Club Invitational 200m 39.96 27th · 3rd on team -0.038 PR SR
2011-05-21 Hercules Running Rebels & Top Pacers Track Club Invitational 100m 18.95 44th · 2nd on team -0.038
2011-05-14 3M Track Club Invitational 100m 18.95 40th · 3rd on team -0.028 PR SR
2011-05-14 3M Track Club Invitational 200m 41.26 23rd · 2nd on team -0.028 PR SR